createdAt,value
2022-09-16T00:01:31.096Z,100065.72
2022-09-16T00:03:57.886Z,100073.47
2022-09-16T00:06:26.786Z,100077.75
2022-09-16T00:08:55.393Z,100076.22
2022-09-16T00:11:22.379Z,100075.31
2022-09-16T00:13:49.018Z,100072.81
2022-09-16T00:16:25.438Z,100077.25
2022-09-16T00:18:56.517Z,100080.78
2022-09-16T00:21:22.840Z,100080.72
2022-09-16T00:23:49.160Z,100081.69
2022-09-16T00:26:15.930Z,100086.16
2022-09-16T00:28:43.107Z,100088.75
2022-09-16T00:31:09.854Z,100088.84
2022-09-16T00:33:36.259Z,100079.44
2022-09-16T00:36:11.079Z,100081.94
2022-09-16T00:38:38.106Z,100076.59
2022-09-16T00:41:06.005Z,100078.25
2022-09-16T00:43:51.745Z,100073.81
2022-09-16T00:46:26.043Z,100071.03
2022-09-16T00:48:52.891Z,100073.72
2022-09-16T00:51:20.976Z,100077.06
2022-09-16T00:53:56.724Z,100092.53
2022-09-16T00:56:26.818Z,100099.34
2022-09-16T00:59:03.033Z,100105.28
2022-09-16T01:01:31.171Z,100103.53
2022-09-16T01:04:02.713Z,100098.38
2022-09-16T01:06:30.841Z,100096.47
2022-09-16T01:08:57.750Z,100092.19
2022-09-16T01:11:24.921Z,100094.81
2022-09-16T01:13:52.087Z,100098.38
2022-09-16T01:16:32.614Z,100100.00
2022-09-16T01:19:15.803Z,100102.00
2022-09-16T01:22:10.741Z,100097.72
2022-09-16T01:25:12.229Z,100086.66
2022-09-16T01:28:04.245Z,100095.63
2022-09-16T01:30:36.487Z,100100.59
2022-09-16T01:33:06.513Z,100102.28
2022-09-16T01:35:43.092Z,100100.50
2022-09-16T01:38:34.160Z,100085.91
2022-09-16T01:41:09.703Z,100083.16
2022-09-16T01:43:55.678Z,100081.63
2022-09-16T01:46:38.800Z,100085.97
2022-09-16T01:49:08.194Z,100089.47
2022-09-16T01:51:48.027Z,100081.03
2022-09-16T01:54:26.793Z,100074.91
2022-09-16T01:57:08.019Z,100079.28
2022-09-16T01:59:42.455Z,100078.53
2022-09-16T02:02:34.571Z,100066.41
2022-09-16T02:05:05.908Z,100066.56
2022-09-16T02:07:37.334Z,100079.50
2022-09-16T02:10:58.290Z,100071.78
2022-09-16T02:13:35.782Z,100069.88
2022-09-16T02:16:08.073Z,100066.53
2022-09-16T02:18:40.568Z,100061.28
2022-09-16T02:21:11.329Z,100059.63
2022-09-16T02:23:46.343Z,100064.00
2022-09-16T02:26:17.759Z,100063.97
2022-09-16T02:28:47.076Z,100059.63
2022-09-16T02:31:14.559Z,100054.50
2022-09-16T02:33:47.604Z,100057.09
2022-09-16T02:36:19.670Z,100070.06
2022-09-16T02:38:49.821Z,100075.25
2022-09-16T02:41:16.315Z,100066.34
2022-09-16T02:43:42.936Z,100054.22
2022-09-16T02:46:11.609Z,100059.38
2022-09-16T02:48:43.645Z,100051.75
2022-09-16T02:51:54.480Z,100049.97
2022-09-16T02:54:47.830Z,100061.22
2022-09-16T02:57:14.505Z,100056.06
2022-09-16T02:59:41.696Z,100058.75
2022-09-16T03:02:08.244Z,100055.41
2022-09-16T03:04:34.936Z,100051.13
2022-09-16T03:07:04.713Z,100051.88
2022-09-16T03:09:31.552Z,100049.38
2022-09-16T03:12:20.812Z,100052.91
2022-09-16T03:15:05.643Z,100053.72
2022-09-16T03:17:55.910Z,100059.72
2022-09-16T03:20:51.424Z,100068.59
2022-09-16T03:23:32.044Z,100061.63
2022-09-16T03:26:00.799Z,100063.38
2022-09-16T03:28:32.246Z,100057.19
2022-09-16T03:31:20.963Z,100033.84
2022-09-16T03:33:47.274Z,100030.38
2022-09-16T03:36:19.171Z,100025.97
2022-09-16T03:38:46.561Z,100039.84
2022-09-16T03:41:15.129Z,100035.75
2022-09-16T03:43:52.654Z,100034.91
2022-09-16T03:46:18.979Z,100028.91
2022-09-16T03:48:45.308Z,100029.03
2022-09-16T03:51:12.423Z,100028.97
2022-09-16T03:53:38.704Z,100035.09
2022-09-16T03:56:05.263Z,100033.38
2022-09-16T03:58:31.639Z,100041.31
2022-09-16T04:00:58.108Z,100040.44
2022-09-16T04:03:24.660Z,100044.59
2022-09-16T04:05:54.550Z,100045.41
2022-09-16T04:08:21.115Z,100033.41
2022-09-16T04:10:58.031Z,100044.66
2022-09-16T04:13:24.368Z,100042.81
2022-09-16T04:15:51.064Z,100049.78
2022-09-16T04:18:18.400Z,100039.53
2022-09-16T04:20:45.076Z,100036.91
2022-09-16T04:23:11.683Z,100030.91
2022-09-16T04:25:38.069Z,100025.72
2022-09-16T04:28:04.342Z,100026.53
2022-09-16T04:30:30.856Z,100026.63
2022-09-16T04:32:57.327Z,100029.22
2022-09-16T04:35:25.006Z,100029.38
2022-09-16T04:37:52.757Z,100016.44
2022-09-16T04:40:19.270Z,100022.56
2022-09-16T04:42:50.286Z,100016.63
2022-09-16T04:45:16.709Z,100019.31
2022-09-16T04:47:43.433Z,100025.25
2022-09-16T04:50:10.652Z,100019.38
2022-09-16T04:52:37.278Z,100022.94
2022-09-16T04:55:03.996Z,100019.31
2022-09-16T04:57:32.348Z,100021.13
2022-09-16T04:59:59.014Z,100016.94
2022-09-16T05:02:25.359Z,100017.75
2022-09-16T05:04:51.680Z,100016.16
2022-09-16T05:07:17.979Z,100018.63
2022-09-16T05:09:44.559Z,100020.44
2022-09-16T05:12:10.943Z,100017.75
2022-09-16T05:14:38.155Z,100016.78
2022-09-16T05:17:04.420Z,100010.63
2022-09-16T05:19:30.872Z,100009.72
2022-09-16T05:21:57.166Z,100008.88
2022-09-16T05:24:23.503Z,100004.56
2022-09-16T05:26:49.798Z,100005.22
2022-09-16T05:29:17.028Z,100004.25
2022-09-16T05:31:47.152Z,100018.88
2022-09-16T05:34:19.876Z,100007.66
2022-09-16T05:36:47.661Z,100000.84
2022-09-16T05:39:23.113Z,99998.16
2022-09-16T05:41:54.194Z,99998.97
2022-09-16T05:44:20.501Z,99996.38
2022-09-16T05:46:46.790Z,99996.41
2022-09-16T05:49:13.146Z,99992.13
2022-09-16T05:51:41.239Z,99997.31
2022-09-16T05:54:08.114Z,100002.63
2022-09-16T05:56:34.771Z,100004.34
2022-09-16T05:59:01.497Z,100002.44
2022-09-16T06:01:31.012Z,100002.19
2022-09-16T06:03:57.762Z,100001.25
2022-09-16T06:06:25.350Z,100000.00
2022-09-16T06:08:53.910Z,99995.59
2022-09-16T06:11:20.577Z,99991.25
2022-09-16T06:13:47.612Z,99984.28
2022-09-16T06:16:16.882Z,99985.22
2022-09-16T06:18:43.331Z,99992.91
2022-09-16T06:21:11.624Z,99993.75
2022-09-16T06:23:39.255Z,99989.44
2022-09-16T06:26:14.515Z,99985.84
2022-09-16T06:28:41.331Z,99988.19
2022-09-16T06:31:13.391Z,99988.03
2022-09-16T06:33:40.425Z,99978.25
2022-09-16T06:36:15.284Z,99977.16
2022-09-16T06:38:41.676Z,99973.72
2022-09-16T06:41:10.119Z,99960.38
2022-09-16T06:43:37.471Z,99964.78
2022-09-16T06:46:18.643Z,99965.31
2022-09-16T06:48:47.227Z,99967.19
2022-09-16T06:51:24.947Z,99955.63
2022-09-16T06:53:52.423Z,99970.34
2022-09-16T06:56:21.628Z,99965.72
2022-09-16T06:58:55.558Z,99963.00
2022-09-16T07:01:24.451Z,99962.88
2022-09-16T07:03:52.350Z,99965.50
2022-09-16T07:06:20.620Z,99964.19
2022-09-16T07:08:47.833Z,99952.00
2022-09-16T07:11:17.322Z,99964.00
2022-09-16T07:13:45.362Z,99955.34
2022-09-16T07:16:14.888Z,99957.66
2022-09-16T07:18:42.669Z,99957.41
2022-09-16T07:21:14.842Z,99958.03
2022-09-16T07:23:42.435Z,99970.81
2022-09-16T07:26:14.953Z,99951.56
2022-09-16T07:28:42.948Z,99954.56
2022-09-16T07:31:16.098Z,99943.59
2022-09-16T07:33:46.119Z,99943.25
2022-09-16T07:36:14.776Z,99950.69
2022-09-16T07:38:41.537Z,99953.72
2022-09-16T07:41:14.462Z,99941.91
2022-09-16T07:43:42.000Z,99944.72
2022-09-16T07:46:13.189Z,99940.88
2022-09-16T07:48:40.169Z,99943.91
2022-09-16T07:51:09.399Z,99949.06
2022-09-16T07:53:36.285Z,99950.59
2022-09-16T07:56:08.546Z,99944.66
2022-09-16T07:58:35.823Z,99949.97
2022-09-16T08:01:04.878Z,99951.03
2022-09-16T08:03:36.055Z,99941.13
2022-09-16T08:06:05.778Z,99946.91
2022-09-16T08:08:33.167Z,99947.13
2022-09-16T08:11:00.823Z,99938.00
2022-09-16T08:13:29.588Z,99943.06
2022-09-16T08:16:00.641Z,99944.25
2022-09-16T08:18:27.460Z,99940.19
2022-09-16T08:20:53.868Z,99938.00
2022-09-16T08:23:20.198Z,99941.06
2022-09-16T08:25:47.042Z,99922.84
2022-09-16T08:28:15.200Z,99923.34
2022-09-16T08:30:42.476Z,99926.16
2022-09-16T08:33:08.827Z,99921.75
2022-09-16T08:35:35.746Z,99925.84
2022-09-16T08:38:02.649Z,99937.88
2022-09-16T08:40:34.264Z,99941.97
2022-09-16T08:43:00.754Z,99928.25
2022-09-16T08:45:31.974Z,99933.66
2022-09-16T08:48:28.007Z,99943.88
2022-09-16T08:50:58.742Z,99954.81
2022-09-16T08:53:41.312Z,99942.34
2022-09-16T08:56:13.836Z,99937.44
2022-09-16T08:58:43.563Z,99956.44
2022-09-16T09:01:36.346Z,99938.47
2022-09-16T09:04:03.618Z,99948.00
2022-09-16T09:06:38.859Z,99939.28
2022-09-16T09:09:24.664Z,99935.13
2022-09-16T09:12:02.944Z,99945.44
2022-09-16T09:14:42.627Z,99936.00
2022-09-16T09:17:48.011Z,99935.38
2022-09-16T09:20:36.108Z,99945.78
2022-09-16T09:23:16.813Z,99936.19
2022-09-16T09:25:55.879Z,99918.56
2022-09-16T09:28:31.256Z,99936.78
2022-09-16T09:31:25.271Z,99932.50
2022-09-16T09:34:06.206Z,99929.19
2022-09-16T09:36:38.271Z,99926.78
2022-09-16T09:39:50.787Z,99926.63
2022-09-16T09:42:28.182Z,99917.34
2022-09-16T09:45:12.132Z,99901.13
2022-09-16T09:48:01.745Z,99898.09
2022-09-16T09:50:44.387Z,99901.31
2022-09-16T09:53:23.749Z,99888.06
2022-09-16T09:55:58.246Z,99880.09
2022-09-16T09:58:41.258Z,99878.09
2022-09-16T10:01:09.047Z,99871.19
2022-09-16T10:03:36.989Z,99878.50
2022-09-16T10:06:03.805Z,99870.22
2022-09-16T10:08:43.516Z,99871.25
2022-09-16T10:11:19.677Z,99874.44
2022-09-16T10:13:55.393Z,99871.81
2022-09-16T10:16:24.813Z,99874.59
2022-09-16T10:19:05.555Z,99869.97
2022-09-16T10:21:45.948Z,99870.56
2022-09-16T10:24:32.212Z,99870.56
2022-09-16T10:27:00.329Z,99858.88
2022-09-16T10:29:27.222Z,99872.69
2022-09-16T10:31:54.472Z,99853.63
2022-09-16T10:34:33.550Z,99869.06
2022-09-16T10:37:01.248Z,99869.72
2022-09-16T10:39:29.758Z,99865.56
2022-09-16T10:41:56.630Z,99864.41
2022-09-16T10:44:32.173Z,99863.41
2022-09-16T10:46:58.478Z,99868.03
2022-09-16T10:49:52.659Z,99860.09
2022-09-16T10:52:25.635Z,99866.28
2022-09-16T10:54:52.911Z,99855.78
2022-09-16T10:57:31.116Z,99845.91
2022-09-16T11:00:09.103Z,99829.66
2022-09-16T11:03:00.720Z,99841.22
2022-09-16T11:05:52.060Z,99833.75
2022-09-16T11:08:49.905Z,99831.75
2022-09-16T11:11:35.197Z,99831.22
2022-09-16T11:14:21.795Z,99824.88
2022-09-16T11:17:03.132Z,99839.91
2022-09-16T11:19:45.172Z,99831.38
2022-09-16T11:22:57.827Z,99852.44
2022-09-16T11:25:44.057Z,99850.56
2022-09-16T11:28:37.098Z,99852.28
2022-09-16T11:31:21.939Z,99849.06
2022-09-16T11:33:59.707Z,99843.91
2022-09-16T11:36:52.968Z,99850.28
2022-09-16T11:39:44.504Z,99861.97
2022-09-16T11:42:25.293Z,99859.13
2022-09-16T11:45:17.344Z,99860.22
2022-09-16T11:48:19.814Z,99869.22
2022-09-16T11:51:08.382Z,99862.94
2022-09-16T11:53:46.756Z,99855.03
2022-09-16T11:56:35.271Z,99852.44
2022-09-16T11:59:44.574Z,99838.97
2022-09-16T12:02:23.752Z,99837.81
2022-09-16T12:04:57.814Z,99829.19
2022-09-16T12:07:37.945Z,99830.94
2022-09-16T12:10:13.915Z,99820.03
2022-09-16T12:12:46.294Z,99814.38
2022-09-16T12:15:26.018Z,99802.59
2022-09-16T12:17:57.361Z,99809.47
2022-09-16T12:20:33.190Z,99794.34
2022-09-16T12:23:12.403Z,99812.25
2022-09-16T12:25:46.789Z,99808.84
2022-09-16T12:28:24.788Z,99805.19
2022-09-16T12:31:09.185Z,99829.81
2022-09-16T12:33:44.009Z,99838.72
2022-09-16T12:36:20.392Z,99847.63
2022-09-16T12:38:49.532Z,99839.84
2022-09-16T12:41:44.021Z,99832.00
2022-09-16T12:44:35.457Z,99833.50
2022-09-16T12:47:16.629Z,99838.78
2022-09-16T12:50:12.631Z,99829.34
2022-09-16T12:53:05.978Z,99821.19
2022-09-16T12:55:48.921Z,99824.81
2022-09-16T12:58:39.914Z,99819.44
2022-09-16T13:01:35.219Z,99816.91
2022-09-16T13:04:13.654Z,99797.94
2022-09-16T13:06:48.122Z,99792.91
2022-09-16T13:09:25.652Z,99804.53
2022-09-16T13:14:49.253Z,99825.88
2022-09-16T13:17:26.979Z,99815.38
2022-09-16T13:19:55.027Z,99801.06
2022-09-16T13:22:30.633Z,99805.47
2022-09-16T13:25:23.317Z,99810.00
2022-09-16T13:28:00.241Z,99799.13
2022-09-16T13:30:37.617Z,99792.00
2022-09-16T13:33:09.802Z,99790.19
2022-09-16T13:35:42.266Z,99789.47
2022-09-16T13:38:23.102Z,99784.81
2022-09-16T13:41:11.416Z,99778.00
2022-09-16T13:43:46.775Z,99763.09
2022-09-16T13:46:26.242Z,99769.66
2022-09-16T13:49:20.540Z,99762.72
2022-09-16T13:51:49.059Z,99758.06
2022-09-16T13:54:19.087Z,99770.56
2022-09-16T13:56:58.106Z,99765.03
2022-09-16T13:59:52.623Z,99759.75
2022-09-16T14:02:36.460Z,99762.34
2022-09-16T14:05:05.484Z,99755.53
2022-09-16T14:08:03.890Z,99753.00
2022-09-16T14:10:54.657Z,99755.78
2022-09-16T14:13:22.698Z,99746.53
2022-09-16T14:15:52.160Z,99741.09
2022-09-16T14:18:27.917Z,99732.56
2022-09-16T14:21:02.754Z,99722.50
2022-09-16T14:23:31.011Z,99735.13
2022-09-16T14:25:57.847Z,99741.63
2022-09-16T14:28:28.441Z,99737.53
2022-09-16T14:31:00.210Z,99736.06
2022-09-16T14:33:38.118Z,99737.25
2022-09-16T14:36:32.616Z,99730.78
2022-09-16T14:39:20.526Z,99720.34
2022-09-16T14:41:53.202Z,99711.09
2022-09-16T14:44:33.780Z,99711.69
2022-09-16T14:47:29.431Z,99703.13
2022-09-16T14:50:08.042Z,99698.72
2022-09-16T14:52:35.498Z,99677.28
2022-09-16T14:55:01.872Z,99676.28
2022-09-16T14:57:30.096Z,99679.78
2022-09-16T14:59:59.033Z,99664.34
2022-09-16T15:02:31.810Z,99661.06
2022-09-16T15:05:12.077Z,99647.16
2022-09-16T15:07:56.291Z,99648.50
2022-09-16T15:10:35.840Z,99647.75
2022-09-16T15:13:18.283Z,99638.06
2022-09-16T15:15:52.822Z,99618.63
2022-09-16T15:18:28.813Z,99621.50
2022-09-16T15:21:14.192Z,99620.47
2022-09-16T15:23:42.274Z,99625.50
2022-09-16T15:26:13.720Z,99629.72
2022-09-16T15:29:04.389Z,99618.22
2022-09-16T15:31:40.254Z,99619.25
2022-09-16T15:34:18.864Z,99608.09
2022-09-16T15:36:47.483Z,99603.78
2022-09-16T15:39:26.477Z,99592.50
2022-09-16T15:42:12.854Z,99611.81
2022-09-16T15:44:58.602Z,99613.19
2022-09-16T15:47:29.171Z,99601.63
2022-09-16T15:50:04.037Z,99593.81
2022-09-16T15:52:53.060Z,99646.59
2022-09-16T15:55:33.816Z,99649.28
2022-09-16T15:58:11.671Z,99609.38
2022-09-16T16:00:59.151Z,99612.63
2022-09-16T16:03:25.755Z,99621.22
2022-09-16T16:05:53.808Z,99631.75
2022-09-16T16:08:41.397Z,99618.97
2022-09-16T16:11:12.844Z,99622.25
2022-09-16T16:13:40.674Z,99625.72
2022-09-16T16:16:08.282Z,99623.78
2022-09-16T16:18:36.691Z,99620.75
2022-09-16T16:21:08.682Z,99616.81
2022-09-16T16:23:36.489Z,99616.59
2022-09-16T16:26:04.684Z,99612.94
2022-09-16T16:28:31.130Z,99604.91
2022-09-16T16:31:12.264Z,99586.56
2022-09-16T16:33:44.063Z,99617.19
2022-09-16T16:36:15.993Z,99618.63
2022-09-16T16:38:43.451Z,99621.91
2022-09-16T16:41:11.945Z,99635.94
2022-09-16T16:43:39.730Z,99625.59
2022-09-16T16:46:06.159Z,99635.00
2022-09-16T16:48:32.612Z,99648.59
2022-09-16T16:51:07.907Z,99647.69
2022-09-16T16:53:34.575Z,99646.84
2022-09-16T16:56:05.964Z,99655.38
2022-09-16T16:58:35.857Z,99659.47
2022-09-16T17:01:13.849Z,99668.88
2022-09-16T17:03:41.133Z,99670.50
2022-09-16T17:06:08.383Z,99682.63
2022-09-16T17:08:35.578Z,99677.97
2022-09-16T17:11:14.828Z,99692.53
2022-09-16T17:13:43.689Z,99695.72
2022-09-16T17:16:12.091Z,99691.31
2022-09-16T17:18:40.117Z,99698.22
2022-09-16T17:21:27.754Z,99705.09
2022-09-16T17:23:54.412Z,99706.72
2022-09-16T17:26:21.294Z,99711.69
2022-09-16T17:28:50.512Z,99718.59
2022-09-16T17:31:24.315Z,99726.31
2022-09-16T17:33:55.804Z,99726.00
2022-09-16T17:36:24.181Z,99733.75
2022-09-16T17:39:01.136Z,99736.44
2022-09-16T17:41:28.209Z,99739.69
2022-09-16T17:43:56.354Z,99739.56
2022-09-16T17:46:25.086Z,99738.00
2022-09-16T17:48:51.498Z,99747.50
2022-09-16T17:51:18.004Z,99755.00
2022-09-16T17:53:44.671Z,99759.13
2022-09-16T17:56:13.635Z,99758.66
2022-09-16T17:58:42.146Z,99765.72
2022-09-16T18:01:14.629Z,99765.59
2022-09-16T18:03:42.903Z,99771.88
2022-09-16T18:06:24.623Z,99780.09
2022-09-16T18:08:52.035Z,99781.66
2022-09-16T18:11:20.833Z,99779.28
2022-09-16T18:13:48.165Z,99788.97
2022-09-16T18:16:17.607Z,99786.25
2022-09-16T18:18:45.120Z,99788.72
2022-09-16T18:21:15.008Z,99794.72
2022-09-16T18:23:42.011Z,99787.72
2022-09-16T18:26:14.238Z,99794.84
2022-09-16T18:29:08.481Z,99795.09
2022-09-16T18:31:33.127Z,99795.34
2022-09-16T18:33:59.402Z,99797.84
2022-09-16T18:36:27.411Z,99797.97
2022-09-16T18:38:55.060Z,99795.59
2022-09-16T18:41:40.886Z,99803.53
2022-09-16T18:44:12.131Z,99810.44
2022-09-16T18:46:39.295Z,99810.44
2022-09-16T18:49:06.663Z,99814.63
2022-09-16T18:51:36.129Z,99817.31
2022-09-16T18:54:05.801Z,99817.22
2022-09-16T18:56:34.015Z,99819.91
2022-09-16T18:59:21.695Z,99824.41
2022-09-16T19:01:51.157Z,99826.25
2022-09-16T19:04:20.258Z,99838.44
2022-09-16T19:06:49.015Z,99835.00
2022-09-16T19:09:18.179Z,99838.59
2022-09-16T19:11:44.494Z,99836.81
2022-09-16T19:14:15.335Z,99841.16
2022-09-16T19:16:44.533Z,99853.97
2022-09-16T19:19:13.502Z,99852.25
2022-09-16T19:21:40.860Z,99854.88
2022-09-16T19:24:13.722Z,99853.25
2022-09-16T19:26:41.635Z,99853.44
2022-09-16T19:29:08.863Z,99864.69
2022-09-16T19:31:37.577Z,99868.31
2022-09-16T19:34:04.707Z,99874.44
2022-09-16T19:36:32.439Z,99876.50
2022-09-16T19:38:59.885Z,99882.56
2022-09-16T19:41:29.357Z,99883.56
2022-09-16T19:44:02.212Z,99877.53
2022-09-16T19:46:31.778Z,99881.00
2022-09-16T19:48:58.152Z,99882.75
2022-09-16T19:51:25.345Z,99891.66
2022-09-16T19:53:53.086Z,99882.88
2022-09-16T19:56:22.375Z,99889.09
2022-09-16T19:58:50.190Z,99896.16
2022-09-16T20:01:19.803Z,99895.09
2022-09-16T20:03:49.176Z,99895.97
2022-09-16T20:06:21.442Z,99897.97
2022-09-16T20:08:51.837Z,99897.94
2022-09-16T20:11:20.590Z,99896.09
2022-09-16T20:13:57.513Z,99896.09
2022-09-16T20:16:26.301Z,99894.56
2022-09-16T20:18:52.968Z,99895.47
2022-09-16T20:21:23.292Z,99892.13
2022-09-16T20:23:50.555Z,99897.59
2022-09-16T20:26:19.641Z,99895.22
2022-09-16T20:28:51.187Z,99894.72
2022-09-16T20:31:24.738Z,99908.59
2022-09-16T20:33:51.583Z,99900.88
2022-09-16T20:36:20.070Z,99904.66
2022-09-16T20:38:46.885Z,99907.38
2022-09-16T20:41:14.733Z,99899.75
2022-09-16T20:43:41.822Z,99912.00
2022-09-16T20:46:20.199Z,99917.31
2022-09-16T20:48:46.774Z,99920.03
2022-09-16T20:51:16.513Z,99921.84
2022-09-16T20:53:43.718Z,99926.34
2022-09-16T20:56:12.675Z,99916.84
2022-09-16T20:58:39.196Z,99921.94
2022-09-16T21:01:06.875Z,99931.63
2022-09-16T21:03:34.131Z,99929.03
2022-09-16T21:06:09.535Z,99936.31
2022-09-16T21:08:39.733Z,99940.75
2022-09-16T21:11:17.593Z,99945.09
2022-09-16T21:13:45.987Z,99948.78
2022-09-16T21:16:15.251Z,99953.91
2022-09-16T21:18:42.306Z,99957.41
2022-09-16T21:21:13.183Z,99964.41
2022-09-16T21:23:40.389Z,99973.22
2022-09-16T21:26:23.803Z,99971.63
2022-09-16T21:28:56.890Z,99974.31
2022-09-16T21:31:24.200Z,99974.19
2022-09-16T21:33:51.837Z,99975.03
2022-09-16T21:36:19.736Z,99973.19
2022-09-16T21:38:46.764Z,99977.47
2022-09-16T21:41:18.114Z,99987.06
2022-09-16T21:43:49.377Z,99981.19
2022-09-16T21:46:19.868Z,99984.72
2022-09-16T21:48:48.030Z,99988.06
2022-09-16T21:51:16.950Z,99995.25
2022-09-16T21:53:44.077Z,99987.38
2022-09-16T21:56:21.207Z,99981.31
2022-09-16T21:58:49.259Z,99985.75
2022-09-16T22:01:18.731Z,99982.41
2022-09-16T22:04:02.303Z,99989.41
2022-09-16T22:06:29.424Z,99985.16
2022-09-16T22:08:58.794Z,99989.41
2022-09-16T22:11:28.801Z,99981.53
2022-09-16T22:13:56.290Z,99988.56
2022-09-16T22:16:28.695Z,99991.38
2022-09-16T22:18:56.470Z,99987.69
2022-09-16T22:21:24.355Z,99987.03
2022-09-16T22:23:50.907Z,99984.63
2022-09-16T22:26:19.405Z,99993.25
2022-09-16T22:28:45.835Z,99987.94
2022-09-16T22:31:20.218Z,99996.63
2022-09-16T22:33:47.945Z,99992.03
2022-09-16T22:36:22.616Z,99991.06
2022-09-16T22:38:54.211Z,99985.06
2022-09-16T22:41:21.543Z,99991.97
2022-09-16T22:43:49.628Z,99991.97
2022-09-16T22:46:25.566Z,99999.75
2022-09-16T22:48:54.197Z,99993.59
2022-09-16T22:51:20.748Z,100000.69
2022-09-16T22:53:48.323Z,99998.19
2022-09-16T22:56:31.614Z,99996.59
2022-09-16T22:58:59.160Z,99994.81
2022-09-16T23:01:31.892Z,99999.78
2022-09-16T23:04:00.766Z,99993.91
2022-09-16T23:06:29.983Z,100000.81
2022-09-16T23:08:56.703Z,100001.53
2022-09-16T23:11:26.079Z,100004.31
2022-09-16T23:13:55.457Z,100002.56
2022-09-16T23:16:41.798Z,100009.28
2022-09-16T23:19:10.782Z,100004.81
2022-09-16T23:21:38.000Z,100002.09
2022-09-16T23:24:06.675Z,99997.69
2022-09-16T23:26:35.746Z,100001.16
2022-09-16T23:29:04.993Z,99998.34
2022-09-16T23:31:35.610Z,99992.34
2022-09-16T23:34:07.296Z,100000.81
2022-09-16T23:36:36.784Z,99994.84
2022-09-16T23:39:05.709Z,99995.84
2022-09-16T23:41:32.221Z,99998.22
2022-09-16T23:43:58.594Z,100000.75
2022-09-16T23:46:28.535Z,100001.72
2022-09-16T23:48:55.415Z,100001.56
2022-09-16T23:51:27.823Z,99997.28
2022-09-16T23:53:55.764Z,99998.81
2022-09-16T23:56:22.212Z,99996.13
2022-09-16T23:58:49.732Z,100000.56
